sensor_id;sensor_type;location;lat;lon;timestamp;temperature;humidity
9167;DHT22;4618;48.818;9.088;2023-05-29T00:01:34;12.20;1.00
9167;DHT22;4618;48.818;9.088;2023-05-29T00:04:01;12.00;1.00
9167;DHT22;4618;48.818;9.088;2023-05-29T00:06:26;11.60;99.90
9167;DHT22;4618;48.818;9.088;2023-05-29T00:08:52;11.70;1.00
9167;DHT22;4618;48.818;9.088;2023-05-29T00:11:18;11.80;1.00
9167;DHT22;4618;48.818;9.088;2023-05-29T00:13:43;11.80;1.00
9167;DHT22;4618;48.818;9.088;2023-05-29T00:16:09;11.90;1.00
9167;DHT22;4618;48.818;9.088;2023-05-29T00:18:35;12.00;1.00
9167;DHT22;4618;48.818;9.088;2023-05-29T00:21:01;12.00;99.90
9167;DHT22;4618;48.818;9.088;2023-05-29T00:23:27;12.00;99.90
9167;DHT22;4618;48.818;9.088;2023-05-29T00:25:52;11.90;99.90
9167;DHT22;4618;48.818;9.088;2023-05-29T00:28:18;11.90;1.00
9167;DHT22;4618;48.818;9.088;2023-05-29T00:30:43;11.80;1.00
9167;DHT22;4618;48.818;9.088;2023-05-29T00:33:09;11.60;1.00
9167;DHT22;4618;48.818;9.088;2023-05-29T00:35:34;11.70;1.00
9167;DHT22;4618;48.818;9.088;2023-05-29T00:38:00;11.60;1.00
9167;DHT22;4618;48.818;9.088;2023-05-29T00:40:25;11.60;1.00
9167;DHT22;4618;48.818;9.088;2023-05-29T00:42:51;11.70;1.00
9167;DHT22;4618;48.818;9.088;2023-05-29T00:45:17;11.70;99.90
9167;DHT22;4618;48.818;9.088;2023-05-29T00:47:43;11.80;99.90
9167;DHT22;4618;48.818;9.088;2023-05-29T00:50:10;11.80;99.90
9167;DHT22;4618;48.818;9.088;2023-05-29T00:52:37;11.80;99.90
9167;DHT22;4618;48.818;9.088;2023-05-29T00:55:03;11.70;99.90
9167;DHT22;4618;48.818;9.088;2023-05-29T00:57:30;11.60;99.90
9167;DHT22;4618;48.818;9.088;2023-05-29T00:59:56;11.50;99.90
9167;DHT22;4618;48.818;9.088;2023-05-29T01:02:22;11.40;1.00
9167;DHT22;4618;48.818;9.088;2023-05-29T01:04:48;11.50;1.00
9167;DHT22;4618;48.818;9.088;2023-05-29T01:07:14;11.50;1.00
9167;DHT22;4618;48.818;9.088;2023-05-29T01:09:40;11.50;1.00
9167;DHT22;4618;48.818;9.088;2023-05-29T01:12:27;11.40;1.00
9167;DHT22;4618;48.818;9.088;2023-05-29T01:17:37;11.50;1.00
9167;DHT22;4618;48.818;9.088;2023-05-29T01:20:17;11.50;1.00
9167;DHT22;4618;48.818;9.088;2023-05-29T01:23:37;11.40;1.00
9167;DHT22;4618;48.818;9.088;2023-05-29T01:28:37;11.50;1.00
9167;DHT22;4618;48.818;9.088;2023-05-29T01:31:06;11.40;1.00
9167;DHT22;4618;48.818;9.088;2023-05-29T01:33:33;11.30;1.00
9167;DHT22;4618;48.818;9.088;2023-05-29T01:35:58;11.30;1.00
9167;DHT22;4618;48.818;9.088;2023-05-29T01:38:24;11.30;1.00
9167;DHT22;4618;48.818;9.088;2023-05-29T01:40:50;11.30;1.00
9167;DHT22;4618;48.818;9.088;2023-05-29T01:43:16;11.20;99.90
9167;DHT22;4618;48.818;9.088;2023-05-29T01:45:42;11.10;99.90
9167;DHT22;4618;48.818;9.088;2023-05-29T01:48:08;11.00;1.00
9167;DHT22;4618;48.818;9.088;2023-05-29T01:50:34;11.10;1.00
9167;DHT22;4618;48.818;9.088;2023-05-29T01:53:00;11.00;1.00
9167;DHT22;4618;48.818;9.088;2023-05-29T01:55:26;11.00;1.00
9167;DHT22;4618;48.818;9.088;2023-05-29T01:57:52;10.90;17.20
9167;DHT22;4618;48.818;9.088;2023-05-29T02:00:19;10.80;99.90
9167;DHT22;4618;48.818;9.088;2023-05-29T02:02:45;10.80;99.90
9167;DHT22;4618;48.818;9.088;2023-05-29T02:05:10;10.90;99.90
9167;DHT22;4618;48.818;9.088;2023-05-29T02:07:36;11.00;99.90
9167;DHT22;4618;48.818;9.088;2023-05-29T02:10:03;11.10;99.90
9167;DHT22;4618;48.818;9.088;2023-05-29T02:12:29;11.10;55.80
9167;DHT22;4618;48.818;9.088;2023-05-29T02:14:54;11.00;99.90
9167;DHT22;4618;48.818;9.088;2023-05-29T02:17:20;10.80;1.00
9167;DHT22;4618;48.818;9.088;2023-05-29T03:01:08;9.90;1.00
9167;DHT22;4618;48.818;9.088;2023-05-29T03:03:34;9.90;1.00
9167;DHT22;4618;48.818;9.088;2023-05-29T03:05:59;9.80;1.00
9167;DHT22;4618;48.818;9.088;2023-05-29T03:08:26;9.80;99.90
9167;DHT22;4618;48.818;9.088;2023-05-29T03:10:52;9.80;99.90
9167;DHT22;4618;48.818;9.088;2023-05-29T03:13:18;9.70;99.90
9167;DHT22;4618;48.818;9.088;2023-05-29T03:15:44;9.70;99.90
9167;DHT22;4618;48.818;9.088;2023-05-29T03:18:09;9.60;99.90
9167;DHT22;4618;48.818;9.088;2023-05-29T03:20:35;9.50;1.00
9167;DHT22;4618;48.818;9.088;2023-05-29T03:23:01;9.40;1.00
9167;DHT22;4618;48.818;9.088;2023-05-29T03:25:26;9.40;1.00
9167;DHT22;4618;48.818;9.088;2023-05-29T03:27:52;9.40;1.00
9167;DHT22;4618;48.818;9.088;2023-05-29T03:30:17;9.40;1.00
9167;DHT22;4618;48.818;9.088;2023-05-29T03:32:44;9.30;1.00
9167;DHT22;4618;48.818;9.088;2023-05-29T03:35:10;9.40;1.00
9167;DHT22;4618;48.818;9.088;2023-05-29T03:37:36;9.40;1.00
9167;DHT22;4618;48.818;9.088;2023-05-29T03:40:02;9.40;1.00
9167;DHT22;4618;48.818;9.088;2023-05-29T03:42:28;9.30;1.00
9167;DHT22;4618;48.818;9.088;2023-05-29T03:44:56;9.40;1.00
9167;DHT22;4618;48.818;9.088;2023-05-29T03:47:22;9.40;1.00
9167;DHT22;4618;48.818;9.088;2023-05-29T03:49:47;9.30;4.90
9167;DHT22;4618;48.818;9.088;2023-05-29T03:52:13;9.30;99.90
9167;DHT22;4618;48.818;9.088;2023-05-29T03:54:39;9.40;99.90
9167;DHT22;4618;48.818;9.088;2023-05-29T03:57:04;9.30;53.30
9167;DHT22;4618;48.818;9.088;2023-05-29T03:59:32;9.30;1.00
9167;DHT22;4618;48.818;9.088;2023-05-29T04:01:57;9.10;1.00
9167;DHT22;4618;48.818;9.088;2023-05-29T04:04:23;9.00;99.90
9167;DHT22;4618;48.818;9.088;2023-05-29T04:06:48;8.90;1.00
9167;DHT22;4618;48.818;9.088;2023-05-29T04:09:14;9.00;1.00
9167;DHT22;4618;48.818;9.088;2023-05-29T04:11:40;9.10;1.00
9167;DHT22;4618;48.818;9.088;2023-05-29T04:14:06;9.10;1.00
9167;DHT22;4618;48.818;9.088;2023-05-29T04:16:32;9.20;1.00
9167;DHT22;4618;48.818;9.088;2023-05-29T04:18:58;9.30;1.00
9167;DHT22;4618;48.818;9.088;2023-05-29T04:21:23;9.40;1.00
9167;DHT22;4618;48.818;9.088;2023-05-29T04:23:49;9.50;99.90
9167;DHT22;4618;48.818;9.088;2023-05-29T04:26:14;9.60;79.20
9167;DHT22;4618;48.818;9.088;2023-05-29T04:28:43;9.60;1.00
9167;DHT22;4618;48.818;9.088;2023-05-29T04:31:08;9.70;1.00
9167;DHT22;4618;48.818;9.088;2023-05-29T04:33:39;9.80;1.00
9167;DHT22;4618;48.818;9.088;2023-05-29T04:36:05;9.80;1.00
9167;DHT22;4618;48.818;9.088;2023-05-29T04:38:33;9.80;1.00
9167;DHT22;4618;48.818;9.088;2023-05-29T04:40:59;9.90;99.90
9167;DHT22;4618;48.818;9.088;2023-05-29T04:43:25;10.00;99.90
9167;DHT22;4618;48.818;9.088;2023-05-29T04:45:53;10.10;49.30
9167;DHT22;4618;48.818;9.088;2023-05-29T04:48:19;10.10;1.00
9167;DHT22;4618;48.818;9.088;2023-05-29T04:50:45;10.20;1.00
9167;DHT22;4618;48.818;9.088;2023-05-29T04:53:11;10.30;1.00
9167;DHT22;4618;48.818;9.088;2023-05-29T04:55:36;10.40;1.00
9167;DHT22;4618;48.818;9.088;2023-05-29T04:58:02;10.50;1.00
9167;DHT22;4618;48.818;9.088;2023-05-29T05:00:28;10.60;1.00
9167;DHT22;4618;48.818;9.088;2023-05-29T05:02:53;10.70;99.90
9167;DHT22;4618;48.818;9.088;2023-05-29T05:05:19;10.90;1.00
9167;DHT22;4618;48.818;9.088;2023-05-29T05:07:45;11.10;1.00
9167;DHT22;4618;48.818;9.088;2023-05-29T05:10:11;11.30;1.00
9167;DHT22;4618;48.818;9.088;2023-05-29T05:12:37;11.40;99.90
9167;DHT22;4618;48.818;9.088;2023-05-29T05:15:03;11.50;99.90
9167;DHT22;4618;48.818;9.088;2023-05-29T05:17:29;11.60;1.00
9167;DHT22;4618;48.818;9.088;2023-05-29T05:19:55;11.80;1.00
9167;DHT22;4618;48.818;9.088;2023-05-29T05:22:21;11.90;1.00
9167;DHT22;4618;48.818;9.088;2023-05-29T05:24:47;12.10;1.00
9167;DHT22;4618;48.818;9.088;2023-05-29T05:27:13;12.20;99.90
9167;DHT22;4618;48.818;9.088;2023-05-29T05:29:38;12.40;99.90
9167;DHT22;4618;48.818;9.088;2023-05-29T05:32:04;12.60;99.90
9167;DHT22;4618;48.818;9.088;2023-05-29T05:34:30;12.80;1.00
9167;DHT22;4618;48.818;9.088;2023-05-29T05:36:55;12.90;24.30
9167;DHT22;4618;48.818;9.088;2023-05-29T07:46:07;20.70;99.90
9167;DHT22;4618;48.818;9.088;2023-05-29T07:48:32;21.10;99.90
9167;DHT22;4618;48.818;9.088;2023-05-29T07:58:16;22.00;1.00
9167;DHT22;4618;48.818;9.088;2023-05-29T08:00:44;22.20;1.00
9167;DHT22;4618;48.818;9.088;2023-05-29T08:03:09;22.60;1.00
9167;DHT22;4618;48.818;9.088;2023-05-29T08:05:35;23.30;1.00
9167;DHT22;4618;48.818;9.088;2023-05-29T08:08:00;23.70;99.90
9167;DHT22;4618;48.818;9.088;2023-05-29T08:10:26;23.70;99.90
9167;DHT22;4618;48.818;9.088;2023-05-29T08:15:18;23.80;99.90
9167;DHT22;4618;48.818;9.088;2023-05-29T08:17:44;24.10;99.90
9167;DHT22;4618;48.818;9.088;2023-05-29T08:20:10;24.70;1.00
9167;DHT22;4618;48.818;9.088;2023-05-29T08:22:36;24.50;1.00
9167;DHT22;4618;48.818;9.088;2023-05-29T08:25:01;24.80;1.00
9167;DHT22;4618;48.818;9.088;2023-05-29T08:27:27;25.00;99.90
9167;DHT22;4618;48.818;9.088;2023-05-29T08:29:53;25.10;99.90
9167;DHT22;4618;48.818;9.088;2023-05-29T08:39:38;26.40;1.00
9167;DHT22;4618;48.818;9.088;2023-05-29T08:42:07;26.80;1.00
9167;DHT22;4618;48.818;9.088;2023-05-29T08:44:35;26.60;1.00
9167;DHT22;4618;48.818;9.088;2023-05-29T08:47:06;26.10;1.00
9167;DHT22;4618;48.818;9.088;2023-05-29T08:49:45;25.90;1.00
9167;DHT22;4618;48.818;9.088;2023-05-29T08:52:19;25.90;1.00
9167;DHT22;4618;48.818;9.088;2023-05-29T08:54:46;26.30;1.00
9167;DHT22;4618;48.818;9.088;2023-05-29T08:57:12;26.60;1.00
9167;DHT22;4618;48.818;9.088;2023-05-29T08:59:41;27.00;1.00
9167;DHT22;4618;48.818;9.088;2023-05-29T09:02:07;27.10;1.00
9167;DHT22;4618;48.818;9.088;2023-05-29T09:04:32;27.20;1.00
9167;DHT22;4618;48.818;9.088;2023-05-29T09:06:59;27.20;1.00
9167;DHT22;4618;48.818;9.088;2023-05-29T09:09:26;27.20;1.00
9167;DHT22;4618;48.818;9.088;2023-05-29T09:11:55;27.30;1.00
9167;DHT22;4618;48.818;9.088;2023-05-29T09:14:42;27.10;1.00
9167;DHT22;4618;48.818;9.088;2023-05-29T09:17:11;27.50;1.00
9167;DHT22;4618;48.818;9.088;2023-05-29T09:19:37;27.60;1.00
9167;DHT22;4618;48.818;9.088;2023-05-29T09:22:06;27.50;1.00
9167;DHT22;4618;48.818;9.088;2023-05-29T09:24:33;27.70;1.00
9167;DHT22;4618;48.818;9.088;2023-05-29T09:27:00;27.90;1.00
9167;DHT22;4618;48.818;9.088;2023-05-29T09:29:27;27.90;1.00
9167;DHT22;4618;48.818;9.088;2023-05-29T09:31:56;28.00;1.00
9167;DHT22;4618;48.818;9.088;2023-05-29T09:34:26;28.30;1.00
9167;DHT22;4618;48.818;9.088;2023-05-29T09:36:53;28.50;1.00
9167;DHT22;4618;48.818;9.088;2023-05-29T09:39:19;29.10;1.00
9167;DHT22;4618;48.818;9.088;2023-05-29T09:41:45;29.60;1.00
9167;DHT22;4618;48.818;9.088;2023-05-29T09:44:19;29.70;1.00
9167;DHT22;4618;48.818;9.088;2023-05-29T09:46:48;30.00;1.00
9167;DHT22;4618;48.818;9.088;2023-05-29T09:49:14;30.10;1.00
9167;DHT22;4618;48.818;9.088;2023-05-29T09:51:41;29.90;1.00
9167;DHT22;4618;48.818;9.088;2023-05-29T09:54:16;29.90;1.00
9167;DHT22;4618;48.818;9.088;2023-05-29T09:56:43;29.90;1.00
9167;DHT22;4618;48.818;9.088;2023-05-29T10:01:41;31.10;1.00
9167;DHT22;4618;48.818;9.088;2023-05-29T10:04:10;31.10;1.00
9167;DHT22;4618;48.818;9.088;2023-05-29T10:06:37;31.20;1.00
9167;DHT22;4618;48.818;9.088;2023-05-29T10:09:06;31.20;1.00
9167;DHT22;4618;48.818;9.088;2023-05-29T10:11:34;31.50;1.00
9167;DHT22;4618;48.818;9.088;2023-05-29T10:14:02;31.60;1.00
9167;DHT22;4618;48.818;9.088;2023-05-29T10:16:31;31.40;1.00
9167;DHT22;4618;48.818;9.088;2023-05-29T10:19:01;31.40;1.00
9167;DHT22;4618;48.818;9.088;2023-05-29T10:21:33;31.10;1.00
9167;DHT22;4618;48.818;9.088;2023-05-29T10:24:05;31.20;1.00
9167;DHT22;4618;48.818;9.088;2023-05-29T10:26:35;31.10;1.00
9167;DHT22;4618;48.818;9.088;2023-05-29T10:29:37;31.30;1.00
9167;DHT22;4618;48.818;9.088;2023-05-29T10:32:06;31.50;1.00
9167;DHT22;4618;48.818;9.088;2023-05-29T10:35:05;31.60;1.00
9167;DHT22;4618;48.818;9.088;2023-05-29T10:40:25;32.40;1.00
9167;DHT22;4618;48.818;9.088;2023-05-29T10:42:52;32.20;1.00
9167;DHT22;4618;48.818;9.088;2023-05-29T10:53:15;32.30;1.00
9167;DHT22;4618;48.818;9.088;2023-05-29T10:55:42;32.00;1.00
9167;DHT22;4618;48.818;9.088;2023-05-29T11:00:40;32.10;1.00
9167;DHT22;4618;48.818;9.088;2023-05-29T11:03:09;32.20;1.00
9167;DHT22;4618;48.818;9.088;2023-05-29T11:06:05;32.30;1.00
9167;DHT22;4618;48.818;9.088;2023-05-29T11:11:29;32.70;1.00
9167;DHT22;4618;48.818;9.088;2023-05-29T11:13:57;32.50;1.00
9167;DHT22;4618;48.818;9.088;2023-05-29T11:26:30;34.60;1.00
9167;DHT22;4618;48.818;9.088;2023-05-29T11:29:14;35.10;1.00
9167;DHT22;4618;48.818;9.088;2023-05-29T11:31:40;35.10;1.00
9167;DHT22;4618;48.818;9.088;2023-05-29T11:34:09;34.20;1.00
9167;DHT22;4618;48.818;9.088;2023-05-29T11:36:36;34.70;1.00
9167;DHT22;4618;48.818;9.088;2023-05-29T11:39:02;35.40;1.00
9167;DHT22;4618;48.818;9.088;2023-05-29T11:41:29;34.90;1.00
9167;DHT22;4618;48.818;9.088;2023-05-29T11:44:04;35.00;1.00
9167;DHT22;4618;48.818;9.088;2023-05-29T11:46:31;35.40;1.00
9167;DHT22;4618;48.818;9.088;2023-05-29T11:48:58;35.00;1.00
9167;DHT22;4618;48.818;9.088;2023-05-29T11:51:24;34.90;1.00
9167;DHT22;4618;48.818;9.088;2023-05-29T11:53:50;34.20;1.00
9167;DHT22;4618;48.818;9.088;2023-05-29T11:56:18;34.80;1.00
9167;DHT22;4618;48.818;9.088;2023-05-29T11:58:44;34.90;1.00
9167;DHT22;4618;48.818;9.088;2023-05-29T12:01:10;34.80;1.00
9167;DHT22;4618;48.818;9.088;2023-05-29T12:03:38;34.50;1.00
9167;DHT22;4618;48.818;9.088;2023-05-29T12:06:04;34.60;1.00
9167;DHT22;4618;48.818;9.088;2023-05-29T12:08:31;34.80;1.00
9167;DHT22;4618;48.818;9.088;2023-05-29T12:10:57;34.80;1.00
9167;DHT22;4618;48.818;9.088;2023-05-29T12:13:22;34.60;1.00
9167;DHT22;4618;48.818;9.088;2023-05-29T12:15:54;34.70;1.00
9167;DHT22;4618;48.818;9.088;2023-05-29T12:18:20;34.80;1.00
9167;DHT22;4618;48.818;9.088;2023-05-29T12:20:46;34.90;1.00
9167;DHT22;4618;48.818;9.088;2023-05-29T12:23:12;35.30;1.00
9167;DHT22;4618;48.818;9.088;2023-05-29T12:25:37;35.10;1.00
9167;DHT22;4618;48.818;9.088;2023-05-29T12:28:03;35.00;1.00
9167;DHT22;4618;48.818;9.088;2023-05-29T12:30:29;35.30;1.00
9167;DHT22;4618;48.818;9.088;2023-05-29T12:32:55;35.60;1.00
9167;DHT22;4618;48.818;9.088;2023-05-29T12:35:25;36.00;1.00
9167;DHT22;4618;48.818;9.088;2023-05-29T12:37:55;36.50;1.00
9167;DHT22;4618;48.818;9.088;2023-05-29T12:40:22;36.00;1.00
9167;DHT22;4618;48.818;9.088;2023-05-29T12:42:53;35.90;1.00
9167;DHT22;4618;48.818;9.088;2023-05-29T12:45:19;36.00;1.00
9167;DHT22;4618;48.818;9.088;2023-05-29T12:47:55;36.00;1.00
9167;DHT22;4618;48.818;9.088;2023-05-29T12:50:23;35.60;1.00
9167;DHT22;4618;48.818;9.088;2023-05-29T12:52:59;35.30;1.00
9167;DHT22;4618;48.818;9.088;2023-05-29T12:55:26;35.00;1.00
9167;DHT22;4618;48.818;9.088;2023-05-29T12:57:52;35.00;1.00
9167;DHT22;4618;48.818;9.088;2023-05-29T13:00:19;35.30;1.00
9167;DHT22;4618;48.818;9.088;2023-05-29T13:02:46;35.40;1.00
9167;DHT22;4618;48.818;9.088;2023-05-29T13:05:12;35.60;1.00
9167;DHT22;4618;48.818;9.088;2023-05-29T13:07:38;35.60;1.00
9167;DHT22;4618;48.818;9.088;2023-05-29T13:10:04;35.30;1.00
9167;DHT22;4618;48.818;9.088;2023-05-29T13:12:29;35.40;1.00
9167;DHT22;4618;48.818;9.088;2023-05-29T13:14:55;35.20;1.00
9167;DHT22;4618;48.818;9.088;2023-05-29T13:17:23;34.80;1.00
9167;DHT22;4618;48.818;9.088;2023-05-29T13:19:49;34.20;1.00
9167;DHT22;4618;48.818;9.088;2023-05-29T13:22:14;33.90;1.00
9167;DHT22;4618;48.818;9.088;2023-05-29T13:24:40;34.50;1.00
9167;DHT22;4618;48.818;9.088;2023-05-29T13:27:06;35.10;1.00
9167;DHT22;4618;48.818;9.088;2023-05-29T13:29:32;35.30;1.00
9167;DHT22;4618;48.818;9.088;2023-05-29T13:31:57;34.30;1.00
9167;DHT22;4618;48.818;9.088;2023-05-29T13:34:23;34.00;1.00
9167;DHT22;4618;48.818;9.088;2023-05-29T13:36:57;34.80;1.00
9167;DHT22;4618;48.818;9.088;2023-05-29T13:39:23;34.80;1.00
9167;DHT22;4618;48.818;9.088;2023-05-29T13:41:48;34.50;1.00
9167;DHT22;4618;48.818;9.088;2023-05-29T13:44:14;34.40;1.00
9167;DHT22;4618;48.818;9.088;2023-05-29T13:46:39;34.50;1.00
9167;DHT22;4618;48.818;9.088;2023-05-29T13:49:05;34.50;1.00
9167;DHT22;4618;48.818;9.088;2023-05-29T13:51:32;34.30;1.00
9167;DHT22;4618;48.818;9.088;2023-05-29T13:53:58;34.10;1.00
9167;DHT22;4618;48.818;9.088;2023-05-29T13:56:24;34.20;1.00
9167;DHT22;4618;48.818;9.088;2023-05-29T13:58:52;33.90;1.00
9167;DHT22;4618;48.818;9.088;2023-05-29T14:01:18;34.20;1.00
9167;DHT22;4618;48.818;9.088;2023-05-29T14:03:45;34.00;1.00
9167;DHT22;4618;48.818;9.088;2023-05-29T14:06:11;34.20;1.00
9167;DHT22;4618;48.818;9.088;2023-05-29T14:08:36;34.50;1.00
9167;DHT22;4618;48.818;9.088;2023-05-29T14:11:02;34.90;1.00
9167;DHT22;4618;48.818;9.088;2023-05-29T14:13:28;34.80;1.00
9167;DHT22;4618;48.818;9.088;2023-05-29T14:15:53;34.40;1.00
9167;DHT22;4618;48.818;9.088;2023-05-29T14:18:21;34.30;1.00
9167;DHT22;4618;48.818;9.088;2023-05-29T14:20:47;33.90;1.00
9167;DHT22;4618;48.818;9.088;2023-05-29T14:23:17;34.80;1.00
9167;DHT22;4618;48.818;9.088;2023-05-29T14:25:42;35.50;1.00
9167;DHT22;4618;48.818;9.088;2023-05-29T14:28:08;35.20;1.00
9167;DHT22;4618;48.818;9.088;2023-05-29T14:30:35;34.90;1.00
9167;DHT22;4618;48.818;9.088;2023-05-29T14:33:00;34.90;1.00
9167;DHT22;4618;48.818;9.088;2023-05-29T14:35:26;34.90;1.00
9167;DHT22;4618;48.818;9.088;2023-05-29T14:37:51;34.90;1.00
9167;DHT22;4618;48.818;9.088;2023-05-29T14:40:17;35.30;1.00
9167;DHT22;4618;48.818;9.088;2023-05-29T14:42:43;35.20;1.00
9167;DHT22;4618;48.818;9.088;2023-05-29T14:45:08;34.80;1.00
9167;DHT22;4618;48.818;9.088;2023-05-29T14:47:35;34.20;1.00
9167;DHT22;4618;48.818;9.088;2023-05-29T14:50:01;34.50;1.00
9167;DHT22;4618;48.818;9.088;2023-05-29T14:52:26;34.70;1.00
9167;DHT22;4618;48.818;9.088;2023-05-29T14:54:52;34.10;1.00
9167;DHT22;4618;48.818;9.088;2023-05-29T14:57:17;34.80;1.00
9167;DHT22;4618;48.818;9.088;2023-05-29T14:59:43;34.40;1.00
9167;DHT22;4618;48.818;9.088;2023-05-29T15:02:08;33.80;1.00
9167;DHT22;4618;48.818;9.088;2023-05-29T15:04:35;33.50;1.00
9167;DHT22;4618;48.818;9.088;2023-05-29T15:07:01;33.70;1.00
9167;DHT22;4618;48.818;9.088;2023-05-29T15:09:26;33.90;1.00
9167;DHT22;4618;48.818;9.088;2023-05-29T15:11:52;33.90;1.00
9167;DHT22;4618;48.818;9.088;2023-05-29T15:14:17;33.70;1.00
9167;DHT22;4618;48.818;9.088;2023-05-29T15:16:44;33.90;1.00
9167;DHT22;4618;48.818;9.088;2023-05-29T15:19:09;33.80;1.00
9167;DHT22;4618;48.818;9.088;2023-05-29T15:21:36;33.70;1.00
9167;DHT22;4618;48.818;9.088;2023-05-29T15:24:02;33.60;1.00
9167;DHT22;4618;48.818;9.088;2023-05-29T15:26:27;33.10;1.00
9167;DHT22;4618;48.818;9.088;2023-05-29T15:28:53;33.30;1.00
9167;DHT22;4618;48.818;9.088;2023-05-29T15:31:19;33.50;1.00
9167;DHT22;4618;48.818;9.088;2023-05-29T15:33:46;33.60;1.00
9167;DHT22;4618;48.818;9.088;2023-05-29T15:36:12;33.40;1.00
9167;DHT22;4618;48.818;9.088;2023-05-29T15:38:37;33.50;1.00
9167;DHT22;4618;48.818;9.088;2023-05-29T15:41:03;33.40;1.00
9167;DHT22;4618;48.818;9.088;2023-05-29T15:43:29;33.40;1.00
9167;DHT22;4618;48.818;9.088;2023-05-29T15:45:55;33.30;1.00
9167;DHT22;4618;48.818;9.088;2023-05-29T15:48:21;32.60;99.90
9167;DHT22;4618;48.818;9.088;2023-05-29T15:50:47;32.40;99.90
9167;DHT22;4618;48.818;9.088;2023-05-29T15:53:12;32.10;99.90
9167;DHT22;4618;48.818;9.088;2023-05-29T15:55:38;31.90;99.90
9167;DHT22;4618;48.818;9.088;2023-05-29T15:58:03;31.70;99.90
9167;DHT22;4618;48.818;9.088;2023-05-29T16:00:31;32.20;99.90
9167;DHT22;4618;48.818;9.088;2023-05-29T16:02:56;32.80;99.90
9167;DHT22;4618;48.818;9.088;2023-05-29T16:05:22;32.70;99.90
9167;DHT22;4618;48.818;9.088;2023-05-29T16:07:48;32.50;1.00
9167;DHT22;4618;48.818;9.088;2023-05-29T16:10:14;32.60;1.00
9167;DHT22;4618;48.818;9.088;2023-05-29T16:12:44;32.50;1.00
9167;DHT22;4618;48.818;9.088;2023-05-29T16:15:10;31.80;1.00
9167;DHT22;4618;48.818;9.088;2023-05-29T16:17:36;32.00;1.00
9167;DHT22;4618;48.818;9.088;2023-05-29T16:20:02;32.00;1.00
9167;DHT22;4618;48.818;9.088;2023-05-29T16:22:27;32.10;1.00
9167;DHT22;4618;48.818;9.088;2023-05-29T16:24:55;32.20;1.00
9167;DHT22;4618;48.818;9.088;2023-05-29T16:27:20;32.20;1.00
9167;DHT22;4618;48.818;9.088;2023-05-29T16:29:46;32.10;1.00
9167;DHT22;4618;48.818;9.088;2023-05-29T16:32:11;31.70;1.00
9167;DHT22;4618;48.818;9.088;2023-05-29T16:34:37;31.20;1.00
9167;DHT22;4618;48.818;9.088;2023-05-29T16:37:02;31.30;1.00
9167;DHT22;4618;48.818;9.088;2023-05-29T16:39:28;31.30;1.00
9167;DHT22;4618;48.818;9.088;2023-05-29T16:41:57;30.90;1.00
9167;DHT22;4618;48.818;9.088;2023-05-29T16:44:23;30.90;1.00
9167;DHT22;4618;48.818;9.088;2023-05-29T16:46:48;31.00;1.00
9167;DHT22;4618;48.818;9.088;2023-05-29T16:49:14;31.10;1.00
9167;DHT22;4618;48.818;9.088;2023-05-29T16:51:39;31.10;1.00
9167;DHT22;4618;48.818;9.088;2023-05-29T16:54:05;31.00;1.00
9167;DHT22;4618;48.818;9.088;2023-05-29T16:56:30;30.50;1.00
9167;DHT22;4618;48.818;9.088;2023-05-29T16:58:56;30.00;1.00
9167;DHT22;4618;48.818;9.088;2023-05-29T17:01:22;30.20;1.00
9167;DHT22;4618;48.818;9.088;2023-05-29T17:03:48;30.20;1.00
9167;DHT22;4618;48.818;9.088;2023-05-29T17:06:13;30.20;1.00
9167;DHT22;4618;48.818;9.088;2023-05-29T17:08:39;29.90;1.00
9167;DHT22;4618;48.818;9.088;2023-05-29T17:11:04;29.80;1.00
9167;DHT22;4618;48.818;9.088;2023-05-29T17:13:30;29.50;1.00
9167;DHT22;4618;48.818;9.088;2023-05-29T17:15:56;29.40;1.00
9167;DHT22;4618;48.818;9.088;2023-05-29T17:18:21;29.30;1.00
9167;DHT22;4618;48.818;9.088;2023-05-29T17:20:48;28.90;1.00
9167;DHT22;4618;48.818;9.088;2023-05-29T17:23:14;28.70;1.00
9167;DHT22;4618;48.818;9.088;2023-05-29T17:25:39;28.70;1.00
9167;DHT22;4618;48.818;9.088;2023-05-29T17:28:05;28.20;1.00
9167;DHT22;4618;48.818;9.088;2023-05-29T17:30:35;28.30;1.00
9167;DHT22;4618;48.818;9.088;2023-05-29T17:33:01;28.30;1.00
9167;DHT22;4618;48.818;9.088;2023-05-29T17:35:28;28.30;1.00
9167;DHT22;4618;48.818;9.088;2023-05-29T17:37:54;28.10;1.00
9167;DHT22;4618;48.818;9.088;2023-05-29T17:40:20;27.90;1.00
9167;DHT22;4618;48.818;9.088;2023-05-29T17:42:46;27.70;1.00
9167;DHT22;4618;48.818;9.088;2023-05-29T17:45:11;27.80;1.00
9167;DHT22;4618;48.818;9.088;2023-05-29T17:47:39;27.60;1.00
9167;DHT22;4618;48.818;9.088;2023-05-29T17:50:05;27.80;1.00
9167;DHT22;4618;48.818;9.088;2023-05-29T17:52:30;27.40;1.00
9167;DHT22;4618;48.818;9.088;2023-05-29T17:54:56;27.20;1.00
9167;DHT22;4618;48.818;9.088;2023-05-29T17:57:22;27.00;1.00
9167;DHT22;4618;48.818;9.088;2023-05-29T17:59:47;26.80;1.00
9167;DHT22;4618;48.818;9.088;2023-05-29T18:02:13;26.60;1.00
9167;DHT22;4618;48.818;9.088;2023-05-29T18:04:40;26.70;1.00
9167;DHT22;4618;48.818;9.088;2023-05-29T18:07:06;26.50;1.00
9167;DHT22;4618;48.818;9.088;2023-05-29T18:09:32;26.40;1.00
9167;DHT22;4618;48.818;9.088;2023-05-29T18:11:58;26.20;1.00
9167;DHT22;4618;48.818;9.088;2023-05-29T18:14:24;25.90;1.00
9167;DHT22;4618;48.818;9.088;2023-05-29T18:16:49;25.50;1.00
9167;DHT22;4618;48.818;9.088;2023-05-29T18:19:15;25.30;1.00
9167;DHT22;4618;48.818;9.088;2023-05-29T18:21:41;25.20;1.00
9167;DHT22;4618;48.818;9.088;2023-05-29T18:24:07;24.90;1.00
9167;DHT22;4618;48.818;9.088;2023-05-29T18:26:36;24.80;1.00
9167;DHT22;4618;48.818;9.088;2023-05-29T18:29:01;24.50;1.00
9167;DHT22;4618;48.818;9.088;2023-05-29T18:31:30;24.30;1.00
9167;DHT22;4618;48.818;9.088;2023-05-29T18:33:56;24.00;1.00
9167;DHT22;4618;48.818;9.088;2023-05-29T18:36:22;23.90;1.00
9167;DHT22;4618;48.818;9.088;2023-05-29T18:38:47;23.50;1.00
9167;DHT22;4618;48.818;9.088;2023-05-29T18:41:16;23.30;1.00
9167;DHT22;4618;48.818;9.088;2023-05-29T18:43:41;23.00;1.00
9167;DHT22;4618;48.818;9.088;2023-05-29T18:46:07;22.80;1.00
9167;DHT22;4618;48.818;9.088;2023-05-29T18:48:32;22.40;1.00
9167;DHT22;4618;48.818;9.088;2023-05-29T18:50:58;22.20;1.00
9167;DHT22;4618;48.818;9.088;2023-05-29T18:53:25;21.90;1.00
9167;DHT22;4618;48.818;9.088;2023-05-29T18:55:51;21.70;1.00
9167;DHT22;4618;48.818;9.088;2023-05-29T18:58:17;21.60;1.00
9167;DHT22;4618;48.818;9.088;2023-05-29T19:00:42;21.50;1.00
9167;DHT22;4618;48.818;9.088;2023-05-29T19:03:08;21.30;1.00
9167;DHT22;4618;48.818;9.088;2023-05-29T19:05:35;21.10;1.00
9167;DHT22;4618;48.818;9.088;2023-05-29T19:08:01;21.00;1.00
9167;DHT22;4618;48.818;9.088;2023-05-29T19:10:32;20.70;1.00
9167;DHT22;4618;48.818;9.088;2023-05-29T19:12:58;20.40;1.00
9167;DHT22;4618;48.818;9.088;2023-05-29T19:15:24;20.20;1.00
9167;DHT22;4618;48.818;9.088;2023-05-29T19:17:49;20.10;1.00
9167;DHT22;4618;48.818;9.088;2023-05-29T19:20:15;19.90;1.00
9167;DHT22;4618;48.818;9.088;2023-05-29T19:22:40;19.60;1.00
9167;DHT22;4618;48.818;9.088;2023-05-29T19:25:06;19.60;1.00
9167;DHT22;4618;48.818;9.088;2023-05-29T19:27:32;19.50;1.00
9167;DHT22;4618;48.818;9.088;2023-05-29T19:29:58;19.20;1.00
9167;DHT22;4618;48.818;9.088;2023-05-29T19:32:25;19.20;1.00
9167;DHT22;4618;48.818;9.088;2023-05-29T19:34:52;19.00;1.00
9167;DHT22;4618;48.818;9.088;2023-05-29T19:37:18;18.90;1.00
9167;DHT22;4618;48.818;9.088;2023-05-29T19:39:44;19.00;1.00
9167;DHT22;4618;48.818;9.088;2023-05-29T19:42:11;18.90;1.00
9167;DHT22;4618;48.818;9.088;2023-05-29T19:44:36;18.80;1.00
9167;DHT22;4618;48.818;9.088;2023-05-29T19:47:02;18.70;1.00
9167;DHT22;4618;48.818;9.088;2023-05-29T19:49:28;18.50;1.00
9167;DHT22;4618;48.818;9.088;2023-05-29T19:51:53;18.40;1.00
9167;DHT22;4618;48.818;9.088;2023-05-29T19:54:26;18.40;1.00